createdAt,value
2018-11-21T00:01:45.126Z,54.23
2018-11-21T00:04:13.609Z,54.90
2018-11-21T00:06:42.061Z,59.07
2018-11-21T00:09:10.839Z,56.63
2018-11-21T00:11:39.281Z,60.03
2018-11-21T00:14:08.183Z,59.90
2018-11-21T00:16:36.932Z,57.60
2018-11-21T00:19:05.774Z,53.37
2018-11-21T00:21:34.439Z,55.80
2018-11-21T00:24:02.899Z,56.23
2018-11-21T00:26:31.401Z,54.80
2018-11-21T00:28:59.843Z,54.27
2018-11-21T00:31:28.323Z,52.90
2018-11-21T00:33:56.755Z,55.13
2018-11-21T00:36:25.230Z,53.30
2018-11-21T00:38:53.681Z,52.13
2018-11-21T00:41:22.148Z,52.17
2018-11-21T00:43:50.585Z,52.33
2018-11-21T00:46:19.056Z,57.30
2018-11-21T00:48:47.532Z,53.17
2018-11-21T00:51:16.017Z,54.33
2018-11-21T00:53:44.451Z,53.83
2018-11-21T00:56:12.923Z,54.03
2018-11-21T00:58:41.365Z,59.30
2018-11-21T01:01:09.856Z,53.83
2018-11-21T01:03:38.407Z,57.73
2018-11-21T01:06:07.154Z,57.03
2018-11-21T01:08:35.604Z,57.27
2018-11-21T01:11:04.044Z,62.90
2018-11-21T01:13:32.517Z,68.90
2018-11-21T01:16:00.953Z,63.23
2018-11-21T01:18:29.431Z,73.17
2018-11-21T01:20:57.919Z,65.33
2018-11-21T01:23:26.380Z,59.57
2018-11-21T01:25:54.849Z,60.10
2018-11-21T01:28:23.284Z,64.10
2018-11-21T01:30:51.761Z,70.03
2018-11-21T01:33:20.214Z,64.57
2018-11-21T01:35:48.700Z,59.07
2018-11-21T01:38:17.141Z,64.87
2018-11-21T01:40:45.711Z,68.90
2018-11-21T01:43:14.146Z,80.63
2018-11-21T01:45:42.642Z,71.63
2018-11-21T01:48:11.091Z,70.70
2018-11-21T01:50:39.546Z,69.50
2018-11-21T01:53:08.077Z,74.23
2018-11-21T01:55:36.499Z,72.10
2018-11-21T01:58:05.099Z,65.90
2018-11-21T02:00:33.583Z,73.10
2018-11-21T02:03:02.069Z,74.37
2018-11-21T02:05:30.526Z,76.57
2018-11-21T02:07:59.003Z,79.33
2018-11-21T02:10:27.481Z,73.43
2018-11-21T02:12:55.962Z,71.27
2018-11-21T02:15:24.402Z,64.87
2018-11-21T02:17:52.848Z,66.57
2018-11-21T02:20:21.328Z,66.33
2018-11-21T02:22:49.764Z,59.87
2018-11-21T02:25:18.194Z,59.47
2018-11-21T02:27:46.696Z,64.00
2018-11-21T02:30:15.144Z,59.00
2018-11-21T02:32:43.633Z,58.83
2018-11-21T02:35:12.092Z,63.30
2018-11-21T02:37:40.585Z,53.53
2018-11-21T02:40:09.229Z,52.37
2018-11-21T02:42:37.719Z,54.27
2018-11-21T02:45:06.363Z,52.83
2018-11-21T02:47:34.849Z,48.83
2018-11-21T02:50:03.320Z,53.53
2018-11-21T02:52:31.829Z,54.27
2018-11-21T02:55:00.276Z,49.03
2018-11-21T02:57:30.313Z,55.83
2018-11-21T03:00:01.016Z,56.30
2018-11-21T03:02:29.445Z,56.63
2018-11-21T03:04:57.924Z,59.03
2018-11-21T03:07:26.380Z,62.30
2018-11-21T03:09:54.834Z,61.23
2018-11-21T03:12:23.349Z,59.67
2018-11-21T03:14:51.857Z,61.47
2018-11-21T03:17:20.297Z,60.40
2018-11-21T03:19:48.819Z,62.63
2018-11-21T03:22:17.268Z,63.47
2018-11-21T03:24:45.763Z,62.57
2018-11-21T03:27:14.202Z,60.83
2018-11-21T03:29:42.680Z,60.50
2018-11-21T03:32:11.121Z,57.90
2018-11-21T03:34:39.600Z,56.13
2018-11-21T03:37:08.039Z,60.13
2018-11-21T03:39:36.780Z,64.03
2018-11-21T03:42:05.881Z,59.77
2018-11-21T03:44:34.326Z,59.63
2018-11-21T03:47:02.815Z,59.30
2018-11-21T03:49:31.560Z,61.70
2018-11-21T03:52:00.054Z,59.37
2018-11-21T03:54:28.502Z,60.77
2018-11-21T03:56:57.252Z,61.67
2018-11-21T03:59:25.693Z,59.37
2018-11-21T04:01:54.136Z,63.67
2018-11-21T04:04:22.627Z,65.87
2018-11-21T04:06:51.125Z,64.17
2018-11-21T04:09:19.616Z,63.03
2018-11-21T04:11:48.062Z,61.67
2018-11-21T04:14:16.560Z,62.17
2018-11-21T04:16:44.999Z,64.37
2018-11-21T04:19:13.471Z,60.53
2018-11-21T04:21:41.904Z,55.03
2018-11-21T04:24:10.390Z,57.77
2018-11-21T04:26:38.826Z,62.03
2018-11-21T04:29:07.325Z,66.37
2018-11-21T04:31:35.768Z,64.40
2018-11-21T04:34:04.294Z,68.10
2018-11-21T04:36:33.028Z,70.07
2018-11-21T04:39:01.460Z,64.50
2018-11-21T04:41:29.900Z,63.30
2018-11-21T04:43:58.387Z,59.77
2018-11-21T04:46:26.851Z,59.33
2018-11-21T04:48:55.295Z,62.00
2018-11-21T04:51:23.780Z,58.23
2018-11-21T04:53:52.269Z,54.97
2018-11-21T04:56:20.717Z,57.70
2018-11-21T04:58:49.152Z,60.93
2018-11-21T05:01:17.614Z,58.43
2018-11-21T05:03:46.070Z,60.50
2018-11-21T05:06:14.559Z,61.30
2018-11-21T05:08:43.048Z,58.80
2018-11-21T05:11:11.554Z,57.80
2018-11-21T05:13:39.995Z,52.83
2018-11-21T05:16:08.494Z,56.07
2018-11-21T05:18:36.992Z,54.20
2018-11-21T05:21:05.624Z,52.53
2018-11-21T05:23:34.090Z,53.53
2018-11-21T05:26:02.596Z,52.30
2018-11-21T05:28:31.050Z,51.63
2018-11-21T05:30:59.543Z,52.07
2018-11-21T05:33:28.013Z,50.83
2018-11-21T05:35:56.514Z,50.77
2018-11-21T05:38:25.006Z,60.37
2018-11-21T05:40:53.498Z,51.40
2018-11-21T05:43:22.239Z,54.40
2018-11-21T05:45:50.693Z,53.53
2018-11-21T05:48:19.149Z,54.83
2018-11-21T05:50:47.637Z,53.67
2018-11-21T05:53:16.082Z,59.73
2018-11-21T05:55:44.768Z,66.03
2018-11-21T05:58:13.222Z,63.00
2018-11-21T06:00:41.707Z,67.00
2018-11-21T06:03:10.171Z,75.20
2018-11-21T06:05:38.665Z,78.43
2018-11-21T06:08:07.148Z,67.20
2018-11-21T06:10:35.635Z,63.87
2018-11-21T06:13:04.157Z,63.70
2018-11-21T06:15:32.637Z,69.07
2018-11-21T06:18:01.083Z,65.87
2018-11-21T06:20:29.560Z,67.20
2018-11-21T06:22:58.029Z,63.97
2018-11-21T06:25:26.510Z,69.70
2018-11-21T06:27:54.963Z,68.53
2018-11-21T06:30:23.442Z,77.40
2018-11-21T06:32:51.906Z,80.53
2018-11-21T06:35:20.390Z,97.90
2018-11-21T06:37:48.826Z,89.80
2018-11-21T06:40:17.307Z,98.43
2018-11-21T06:42:58.991Z,83.97
2018-11-21T06:45:28.480Z,100.40
2018-11-21T06:47:56.966Z,103.23
2018-11-21T06:50:25.528Z,93.80
2018-11-21T06:52:55.156Z,87.57
2018-11-21T06:55:23.623Z,96.90
2018-11-21T06:57:52.209Z,86.80
2018-11-21T07:00:20.695Z,83.80
2018-11-21T07:02:49.153Z,91.10
2018-11-21T07:05:17.633Z,87.90
2018-11-21T07:07:46.102Z,112.87
2018-11-21T07:10:15.427Z,104.83
2018-11-21T07:12:44.659Z,112.23
2018-11-21T07:15:13.124Z,92.07
2018-11-21T07:17:41.618Z,90.83
2018-11-21T07:20:11.642Z,75.40
2018-11-21T07:22:40.191Z,82.77
2018-11-21T07:25:17.749Z,96.13
2018-11-21T07:27:46.280Z,99.30
2018-11-21T07:30:15.680Z,87.53
2018-11-21T07:32:44.158Z,69.00
2018-11-21T07:35:17.769Z,64.13
2018-11-21T07:37:41.855Z,97.40
2018-11-21T07:40:11.908Z,102.30
2018-11-21T07:42:40.501Z,99.50
2018-11-21T07:45:10.472Z,116.13
2018-11-21T07:47:39.583Z,79.53
2018-11-21T07:50:10.420Z,119.83
2018-11-21T07:52:38.914Z,86.73
2018-11-21T07:55:07.609Z,66.27
2018-11-21T07:58:01.334Z,63.87
2018-11-21T08:01:02.727Z,107.47
2018-11-21T08:03:48.729Z,141.50
2018-11-21T08:06:19.867Z,101.30
2018-11-21T08:09:05.350Z,65.30
2018-11-21T08:12:04.983Z,69.40
2018-11-21T08:14:58.151Z,100.93
2018-11-21T08:17:54.468Z,84.63
2018-11-21T08:20:57.236Z,77.87
2018-11-21T08:23:43.461Z,92.43
2018-11-21T08:26:33.703Z,55.60
2018-11-21T08:29:02.153Z,64.43
2018-11-21T08:31:30.638Z,54.90
2018-11-21T08:33:59.091Z,65.70
2018-11-21T08:36:27.594Z,63.47
2018-11-21T08:38:56.051Z,65.03
2018-11-21T08:41:24.553Z,92.13
2018-11-21T08:43:53.047Z,74.83
2018-11-21T08:46:21.527Z,39.07
2018-11-21T08:48:49.988Z,38.73
2018-11-21T08:51:18.465Z,42.87
2018-11-21T08:53:46.922Z,45.50
2018-11-21T08:56:15.425Z,43.03
2018-11-21T08:58:43.893Z,37.37
2018-11-21T09:01:12.448Z,36.00
2018-11-21T09:03:40.903Z,40.70
2018-11-21T09:06:09.387Z,38.40
2018-11-21T09:08:37.883Z,37.07
2018-11-21T09:11:06.394Z,37.00
2018-11-21T09:13:34.852Z,38.93
2018-11-21T09:16:03.428Z,52.50
2018-11-21T09:18:34.825Z,45.73
2018-11-21T09:21:55.280Z,45.90
2018-11-21T09:27:22.568Z,45.80
2018-11-21T09:30:04.542Z,42.10
2018-11-21T09:32:46.361Z,40.30
2018-11-21T09:35:27.985Z,39.87
2018-11-21T09:38:09.741Z,36.50
2018-11-21T09:40:50.610Z,34.97
2018-11-21T09:43:32.149Z,35.87
2018-11-21T09:46:17.205Z,34.13
2018-11-21T09:48:54.505Z,37.00
2018-11-21T09:51:36.046Z,33.47
2018-11-21T09:54:16.134Z,33.57
2018-11-21T10:00:05.232Z,34.90
2018-11-21T10:02:46.379Z,31.87
2018-11-21T10:05:27.491Z,33.13
2018-11-21T10:08:08.351Z,32.73
2018-11-21T10:10:49.515Z,34.90
2018-11-21T10:13:31.506Z,36.93
2018-11-21T10:16:13.029Z,33.93
2018-11-21T10:18:55.413Z,35.13
2018-11-21T10:21:37.230Z,38.73
2018-11-21T10:24:18.485Z,35.37
2018-11-21T10:27:00.005Z,38.20
2018-11-21T10:29:41.470Z,39.83
2018-11-21T10:32:22.694Z,39.27
2018-11-21T10:35:04.162Z,38.60
2018-11-21T10:37:45.233Z,49.43
2018-11-21T10:40:27.614Z,39.97
2018-11-21T10:43:08.705Z,41.40
2018-11-21T10:45:49.550Z,40.03
2018-11-21T10:48:31.247Z,42.50
2018-11-21T10:51:12.169Z,36.10
2018-11-21T10:53:52.439Z,35.93
2018-11-21T10:59:33.972Z,40.70
2018-11-21T11:02:34.182Z,37.67
2018-11-21T11:05:34.311Z,38.90
2018-11-21T11:08:34.273Z,38.47
2018-11-21T11:11:34.495Z,37.57
2018-11-21T11:14:37.553Z,39.77
2018-11-21T11:17:40.187Z,40.90
2018-11-21T11:20:21.780Z,36.90
2018-11-21T11:23:21.831Z,36.53
2018-11-21T11:26:21.597Z,36.33
2018-11-21T11:29:21.465Z,39.93
2018-11-21T11:35:31.042Z,38.80
2018-11-21T11:44:53.785Z,36.37
2018-11-21T11:47:53.472Z,37.23
2018-11-21T11:50:53.702Z,35.83
2018-11-21T11:53:56.489Z,33.13
2018-11-21T11:56:49.367Z,33.93
2018-11-21T11:59:50.221Z,32.17
2018-11-21T12:02:37.620Z,34.17
2018-11-21T12:05:25.758Z,34.33
2018-11-21T12:08:19.900Z,34.00
2018-11-21T12:11:14.291Z,36.93
2018-11-21T12:14:01.487Z,44.63
2018-11-21T12:16:48.937Z,38.77
2018-11-21T12:19:40.181Z,49.50
2018-11-21T12:22:37.702Z,32.87
2018-11-21T12:25:25.417Z,30.53
2018-11-21T12:28:14.030Z,31.17
2018-11-21T12:31:01.203Z,30.17
2018-11-21T12:33:49.809Z,30.70
2018-11-21T12:36:41.270Z,31.07
2018-11-21T12:39:35.846Z,29.80
2018-11-21T12:42:30.311Z,36.73
2018-11-21T12:45:21.926Z,30.30
2018-11-21T12:47:59.835Z,31.53
2018-11-21T12:50:41.670Z,31.17
2018-11-21T12:53:36.486Z,30.60
2018-11-21T12:56:40.091Z,29.53
2018-11-21T12:59:18.766Z,31.57
2018-11-21T13:02:10.166Z,31.37
2018-11-21T13:04:57.310Z,30.43
2018-11-21T13:07:46.138Z,33.40
2018-11-21T13:10:33.154Z,34.53
2018-11-21T13:13:33.549Z,33.13
2018-11-21T13:16:20.774Z,34.10
2018-11-21T13:19:18.166Z,34.50
2018-11-21T13:22:05.493Z,34.83
2018-11-21T13:24:52.709Z,35.63
2018-11-21T13:27:41.439Z,36.47
2018-11-21T13:30:33.540Z,41.87
2018-11-21T13:33:29.659Z,36.03
2018-11-21T13:36:16.810Z,36.40
2018-11-21T13:39:03.672Z,38.93
2018-11-21T13:41:50.998Z,38.00
2018-11-21T13:44:30.045Z,38.10
2018-11-21T13:47:18.777Z,36.83
2018-11-21T13:50:18.726Z,32.67
2018-11-21T13:53:05.850Z,33.93
2018-11-21T13:55:37.468Z,33.60
2018-11-21T13:58:07.593Z,34.73
2018-11-21T14:00:37.546Z,33.00
2018-11-21T14:03:07.897Z,33.77
2018-11-21T14:05:38.904Z,35.60
2018-11-21T14:08:08.984Z,36.87
2018-11-21T14:10:38.941Z,35.73
2018-11-21T14:13:09.021Z,37.03
2018-11-21T14:15:38.970Z,34.43
2018-11-21T14:18:09.085Z,36.37
2018-11-21T14:20:39.042Z,37.60
2018-11-21T14:23:09.121Z,39.07
2018-11-21T14:25:39.079Z,37.27
2018-11-21T14:28:09.057Z,38.73
2018-11-21T14:30:39.018Z,38.00
2018-11-21T14:33:09.014Z,37.03
2018-11-21T14:35:38.997Z,39.73
2018-11-21T14:38:09.088Z,36.53
2018-11-21T14:40:39.146Z,38.53
2018-11-21T14:43:09.238Z,37.73
2018-11-21T14:45:39.301Z,35.53
2018-11-21T14:48:09.306Z,38.57
2018-11-21T14:50:40.247Z,40.37
2018-11-21T14:53:10.350Z,42.97
2018-11-21T14:55:40.406Z,48.97
2018-11-21T14:58:10.490Z,40.13
2018-11-21T15:00:40.537Z,41.47
2018-11-21T15:03:10.596Z,43.17
2018-11-21T15:05:40.540Z,41.90
2018-11-21T15:08:10.515Z,43.40
2018-11-21T15:10:40.486Z,43.77
2018-11-21T15:13:10.562Z,37.97
2018-11-21T15:15:40.519Z,40.93
2018-11-21T15:18:10.573Z,39.33
2018-11-21T15:20:40.503Z,41.80
2018-11-21T15:23:10.486Z,44.10
2018-11-21T15:25:40.437Z,46.93
2018-11-21T15:28:10.433Z,44.10
2018-11-21T15:30:40.484Z,39.33
2018-11-21T15:33:10.542Z,46.73
2018-11-21T15:35:40.485Z,46.83
2018-11-21T15:38:10.482Z,42.27
2018-11-21T15:40:40.841Z,40.87
2018-11-21T15:43:10.474Z,38.93
2018-11-21T15:45:40.570Z,44.43
2018-11-21T15:48:10.598Z,39.73
2018-11-21T15:50:40.543Z,42.47
2018-11-21T15:53:10.479Z,41.33
2018-11-21T15:55:40.564Z,42.47
2018-11-21T15:58:10.672Z,42.87
2018-11-21T16:00:40.777Z,45.80
2018-11-21T16:03:11.619Z,53.73
2018-11-21T16:05:41.714Z,47.97
2018-11-21T16:08:11.909Z,52.73
2018-11-21T16:10:43.485Z,60.10
2018-11-21T16:13:13.456Z,54.13
2018-11-21T16:15:46.217Z,104.97
2018-11-21T16:18:16.955Z,41.90
2018-11-21T16:20:47.001Z,42.30
2018-11-21T16:23:17.189Z,46.00
2018-11-21T16:25:47.283Z,42.67
2018-11-21T16:28:17.247Z,98.90
2018-11-21T16:30:47.230Z,59.53
2018-11-21T16:33:17.191Z,44.73
2018-11-21T16:35:47.300Z,44.63
2018-11-21T16:38:17.409Z,40.77
2018-11-21T16:40:47.522Z,42.30
2018-11-21T16:43:17.586Z,81.83
2018-11-21T16:45:49.949Z,43.27
2018-11-21T16:48:19.911Z,52.60
2018-11-21T16:50:49.912Z,87.80
2018-11-21T16:53:19.980Z,173.53
2018-11-21T16:55:50.064Z,55.67
2018-11-21T16:58:20.129Z,62.97
2018-11-21T17:00:50.326Z,116.93
2018-11-21T17:03:20.276Z,50.70
2018-11-21T17:05:50.258Z,44.87
2018-11-21T17:08:20.200Z,44.97
2018-11-21T17:10:50.266Z,44.87
2018-11-21T17:13:20.205Z,43.70
2018-11-21T17:15:50.190Z,47.50
2018-11-21T17:18:20.122Z,87.93
2018-11-21T17:20:50.106Z,59.63
2018-11-21T17:23:20.145Z,51.13
2018-11-21T17:25:50.077Z,58.90
2018-11-21T17:28:20.469Z,61.43
2018-11-21T17:30:50.536Z,50.47
2018-11-21T17:33:20.553Z,50.27
2018-11-21T17:35:50.546Z,44.10
2018-11-21T17:38:20.538Z,44.87
2018-11-21T17:40:50.558Z,46.50
2018-11-21T17:43:20.498Z,44.37
2018-11-21T17:45:50.474Z,45.30
2018-11-21T17:48:20.423Z,48.23
2018-11-21T17:50:50.495Z,44.00
2018-11-21T17:53:20.433Z,43.67
2018-11-21T17:55:50.495Z,47.47
2018-11-21T17:58:20.454Z,45.27
2018-11-21T18:00:50.532Z,49.20
2018-11-21T18:03:20.524Z,47.13
2018-11-21T18:05:50.518Z,52.17
2018-11-21T18:08:20.464Z,48.57
2018-11-21T18:10:50.478Z,48.70
2018-11-21T18:13:20.454Z,51.17
2018-11-21T18:15:50.458Z,52.20
2018-11-21T18:18:20.529Z,65.33
2018-11-21T18:20:50.527Z,52.33
2018-11-21T18:23:20.589Z,51.27
2018-11-21T18:25:50.686Z,53.17
2018-11-21T18:28:20.650Z,54.43
2018-11-21T18:30:51.477Z,48.87
2018-11-21T18:33:21.469Z,49.83
2018-11-21T18:35:51.480Z,58.67
2018-11-21T18:38:21.440Z,58.03
2018-11-21T18:40:51.490Z,59.63
2018-11-21T18:43:21.482Z,68.53
2018-11-21T18:45:52.449Z,61.93
2018-11-21T18:48:22.512Z,70.03
2018-11-21T18:50:52.576Z,91.57
2018-11-21T18:53:22.688Z,75.83
2018-11-21T18:56:09.341Z,69.00
2018-11-21T18:59:01.155Z,57.23
2018-11-21T19:01:31.221Z,53.03
2018-11-21T19:04:01.176Z,55.23
2018-11-21T19:06:31.190Z,52.93
2018-11-21T19:09:01.153Z,53.60
2018-11-21T19:11:31.247Z,58.80
2018-11-21T19:14:01.333Z,77.60
2018-11-21T19:16:31.443Z,93.93
2018-11-21T19:19:01.481Z,67.97
2018-11-21T19:21:31.451Z,56.03
2018-11-21T19:24:01.582Z,47.60
2018-11-21T19:26:31.576Z,43.53
2018-11-21T19:29:01.757Z,45.20
2018-11-21T19:31:31.815Z,46.57
2018-11-21T19:34:01.920Z,46.87
2018-11-21T19:36:32.051Z,118.33
2018-11-21T19:39:02.173Z,201.37
2018-11-21T19:41:32.119Z,49.33
2018-11-21T19:44:02.250Z,49.73
2018-11-21T19:46:32.307Z,43.53
2018-11-21T19:49:02.339Z,47.20
2018-11-21T19:51:32.382Z,45.50
2018-11-21T19:54:02.554Z,53.33
2018-11-21T19:56:32.661Z,54.97
2018-11-21T19:59:02.728Z,50.90
2018-11-21T20:01:32.800Z,46.37
2018-11-21T20:04:02.853Z,48.00
2018-11-21T20:06:32.848Z,48.10
2018-11-21T20:09:02.867Z,47.03
2018-11-21T20:11:32.908Z,44.87
2018-11-21T20:14:02.979Z,48.43
2018-11-21T20:16:33.292Z,50.03
2018-11-21T20:19:03.278Z,45.03
2018-11-21T20:21:33.232Z,48.67
2018-11-21T20:24:03.290Z,46.00
2018-11-21T20:26:33.242Z,48.50
2018-11-21T20:29:03.533Z,48.30
2018-11-21T20:31:33.794Z,53.10
2018-11-21T20:34:03.964Z,56.63
2018-11-21T20:36:34.161Z,52.90
2018-11-21T20:39:05.987Z,52.73
2018-11-21T20:41:36.030Z,48.33
2018-11-21T20:44:06.408Z,48.13
2018-11-21T20:46:36.357Z,43.03
2018-11-21T20:49:11.283Z,45.33
2018-11-21T20:51:36.682Z,45.33
2018-11-21T20:54:06.778Z,45.17
2018-11-21T20:56:36.813Z,41.93
2018-11-21T20:59:07.138Z,43.30
2018-11-21T21:01:37.082Z,45.97
2018-11-21T21:04:07.090Z,45.53
2018-11-21T21:06:37.201Z,46.77
2018-11-21T21:09:11.757Z,51.13
2018-11-21T21:11:41.794Z,54.80
2018-11-21T21:14:11.949Z,54.67
2018-11-21T21:16:41.967Z,80.13
2018-11-21T21:19:12.037Z,56.47
2018-11-21T21:21:42.020Z,51.90
2018-11-21T21:24:11.994Z,46.37
2018-11-21T21:26:42.062Z,46.10
2018-11-21T21:29:12.037Z,43.80
2018-11-21T21:31:42.088Z,53.10
2018-11-21T21:34:12.154Z,48.50
2018-11-21T21:36:42.208Z,47.97
2018-11-21T21:39:13.190Z,52.17
2018-11-21T21:41:43.225Z,50.27
2018-11-21T21:44:13.195Z,52.30
2018-11-21T21:46:45.796Z,56.33
2018-11-21T21:49:15.781Z,49.03
2018-11-21T21:51:45.798Z,54.23
2018-11-21T21:54:15.783Z,52.40
2018-11-21T21:56:45.801Z,57.60
2018-11-21T21:59:15.791Z,56.23
2018-11-21T22:01:45.743Z,56.87
2018-11-21T22:04:15.728Z,60.43
2018-11-21T22:06:45.718Z,65.10
2018-11-21T22:09:15.761Z,58.93
2018-11-21T22:11:45.804Z,51.40
2018-11-21T22:14:15.898Z,52.97
2018-11-21T22:16:45.936Z,51.50
2018-11-21T22:19:16.094Z,54.53
2018-11-21T22:21:46.036Z,54.63
2018-11-21T22:24:16.091Z,54.37
2018-11-21T22:26:46.031Z,54.80
2018-11-21T22:29:16.002Z,56.03
2018-11-21T22:31:45.953Z,58.43
2018-11-21T22:34:16.018Z,54.60
2018-11-21T22:36:45.950Z,53.20
2018-11-21T22:39:15.944Z,57.23
2018-11-21T22:41:45.961Z,55.17
2018-11-21T22:44:15.914Z,56.13
2018-11-21T22:46:45.846Z,57.80
2018-11-21T22:49:15.827Z,54.13
2018-11-21T22:51:47.675Z,54.23
2018-11-21T22:54:15.813Z,53.17
2018-11-21T22:56:46.012Z,50.93
2018-11-21T22:59:15.974Z,57.17
2018-11-21T23:01:46.023Z,54.83
2018-11-21T23:04:16.028Z,60.00
2018-11-21T23:06:46.021Z,63.40
2018-11-21T23:09:16.094Z,57.23
2018-11-21T23:11:46.149Z,55.87
2018-11-21T23:14:16.221Z,60.83
2018-11-21T23:16:46.160Z,53.47
2018-11-21T23:19:16.138Z,58.50
2018-11-21T23:21:46.227Z,55.23
2018-11-21T23:24:16.155Z,57.47
2018-11-21T23:26:46.192Z,54.90
2018-11-21T23:29:16.179Z,55.57
2018-11-21T23:31:46.221Z,57.17
2018-11-21T23:34:16.308Z,55.97
2018-11-21T23:36:46.326Z,59.37
2018-11-21T23:39:16.364Z,55.90
2018-11-21T23:41:48.077Z,53.73
2018-11-21T23:44:21.203Z,54.63
2018-11-21T23:46:53.182Z,51.77
2018-11-21T23:49:23.167Z,54.07
2018-11-21T23:51:53.291Z,50.43
2018-11-21T23:54:23.352Z,50.93
2018-11-21T23:57:15.757Z,51.23
2018-11-21T23:59:23.374Z,52.20
